Flight Track Log - Related Links

Times and Time Zones

All times are in EDT time to prevent confusion due to time zone crossing. See the N54KP flight status page for this flight to view local times or setup timezone preferences in your user account.


Time Position Orientation Groundspeed Altitude Reporting Facility
EDT Latitude Longitude Course Direction KTS MPH feet Rate Location/Type
Thu 04:10:00 PM 32.2918 -89.9335 135° Southeast  Level FlightAware Approximate
Thu 04:11:00 PM 32.2638 -89.8999 135° Southeast  Level FlightAware Approximate
Thu 04:12:00 PM 32.2356 -89.8665 135° Southeast  Level FlightAware Approximate
Thu 04:13:00 PM 32.2072 -89.8333 135° Southeast  Level FlightAware Approximate
Thu 04:13:26 PM 32.2681 -89.8586 135° Southeast 122 140 5,500  Level Memphis Center
Thu 04:14:00 PM 32.1789 -89.8002 135° Southeast  Level FlightAware Approximate
Thu 04:14:26 PM 32.2450 -89.8267 130° Southeast 122 140 5,900  Level Memphis Center
Thu 04:15:00 PM 32.1505 -89.7671 135° Southeast  Level FlightAware Approximate
Thu 04:15:26 PM 32.2217 -89.7975 133° Southeast 122 140 6,400  Level Memphis Center
Thu 04:16:00 PM 32.1221 -89.7339 135° Southeast  Level FlightAware Approximate
Thu 04:16:26 PM 32.1944 -89.7656 135° Southeast 122 140 6,900  Level Memphis Center
Thu 04:17:00 PM 32.0937 -89.7009 135° Southeast  Level FlightAware Approximate
Thu 04:17:26 PM 32.1672 -89.7364 138° Southeast 122 140 7,100  Level Memphis Center
Thu 04:18:00 PM 32.0653 -89.6678 135° Southeast  Level FlightAware Approximate
Thu 04:18:26 PM 32.1400 -89.7047 135° Southeast 127 146 7,100  Level Memphis Center
Thu 04:19:26 PM 32.1083 -89.6706 138° Southeast 138 159 7,100  Level Memphis Center
Thu 04:20:26 PM 32.0747 -89.6367 139° Southeast 143 165 7,100  Level Memphis Center
Thu 04:21:26 PM 32.0453 -89.6050 138° Southeast 148 170 7,100  Level Memphis Center
Thu 04:22:26 PM 32.0119 -89.5733 141° Southeast 153 176 7,100  Level Memphis Center
Thu 04:23:26 PM 31.9803 -89.5344 134° Southeast 158 182 7,100  Level Memphis Center
Thu 04:24:26 PM 31.9528 -89.5006 134° Southeast 158 182 7,100  Level Memphis Center
Thu 04:25:26 PM 31.9233 -89.4617 132° Southeast 152 175 7,100  Level Memphis Center
Thu 04:26:26 PM 31.8961 -89.4275 133° Southeast 146 168 7,100 65 Level Memphis Center
Thu 04:26:58 PM 31.8744 -89.4133 151° Southeast 152 175 7,200 64 Climbing Houston Center
Thu 04:28:00 PM 31.8442 -89.3794 136° Southeast 151 174 7,200  Level Houston Center
Thu 04:29:02 PM 31.8158 -89.3408 131° Southeast 154 177 7,200  Level Houston Center
Thu 04:30:04 PM 31.7842 -89.3069 138° Southeast 154 177 7,200  Level Houston Center
Thu 04:31:06 PM 31.7519 -89.2750 140° Southeast 152 175 7,200  Level Houston Center
Thu 04:32:08 PM 31.7144 -89.2347 138° Southeast 152 175 7,200 -97 Level Houston Center
Thu 04:33:10 PM 31.6825 -89.2019 139° Southeast 153 176 7,000 -96 Descending Houston Center
Thu 04:34:13 PM 31.6503 -89.1658 136° Southeast 158 182 7,000  Level Houston Center
Thu 04:35:15 PM 31.6208 -89.1347 138° Southeast 148 170 7,000  Level Houston Center
Thu 04:36:17 PM 31.5897 -89.1006 137° Southeast 151 174 7,000  Level Houston Center
Thu 04:37:19 PM 31.5519 -89.0617 139° Southeast 151 174 7,000  Level Houston Center
Thu 04:38:21 PM 31.5211 -89.0294 138° Southeast 149 171 7,000  Level Houston Center
Thu 04:39:23 PM 31.4894 -88.9953 137° Southeast 153 176 7,000  Level Houston Center
Thu 04:40:25 PM 31.4600 -88.9631 137° Southeast 148 170 7,000  Level Houston Center
Thu 04:41:27 PM 31.4294 -88.9311 138° Southeast 147 169 7,000  Level Houston Center
Thu 04:42:30 PM 31.3989 -88.8972 137° Southeast 151 174 7,000  Level Houston Center
Thu 04:43:32 PM 31.3639 -88.8553 134° Southeast 150 173 7,000  Level Houston Center
Thu 04:44:34 PM 31.3339 -88.8192 134° Southeast 153 176 7,000  Level Houston Center
Thu 04:45:36 PM 31.3044 -88.7850 135° Southeast 152 175 7,000  Level Houston Center
Thu 04:46:38 PM 31.2739 -88.7500 136° Southeast 152 175 7,000 48 Level Houston Center
Thu 04:47:40 PM 31.2436 -88.7161 136° Southeast 152 175 7,100 48 Climbing Houston Center
Thu 04:48:42 PM 31.2078 -88.6758 136° Southeast 151 174 7,100  Level Houston Center
Thu 04:49:44 PM 31.1764 -88.6417 137° Southeast 152 175 7,100  Level Houston Center
Thu 04:50:47 PM 31.1456 -88.6081 137° Southeast 152 175 7,100 -48 Level Houston Center
Thu 04:51:49 PM 31.1153 -88.5742 136° Southeast 152 175 7,000 -48 Descending Houston Center
Thu 04:52:51 PM 31.0847 -88.5386 135° Southeast 154 177 7,000 48 Level Houston Center
Thu 04:53:53 PM 31.0506 -88.4931 131° Southeast 155 178 7,100 -145 Climbing Houston Center
Thu 04:54:55 PM 31.0194 -88.4575 136° Southeast 158 182 6,700 -387 Descending Houston Center
Thu 04:55:57 PM 30.9861 -88.4206 136° Southeast 164 189 6,300 -387 Descending Houston Center
Thu 04:56:59 PM 30.9531 -88.3817 135° Southeast 168 193 5,900 -435 Descending Houston Center
Thu 04:58:01 PM 30.9186 -88.3469 139° Southeast 167 192 5,400 -384 Descending Houston Center
Thu 04:59:04 PM 30.8761 -88.3086 142° Southeast 164 189 5,100 -144 Descending Houston Center
Thu 05:00:06 PM 30.8444 -88.2761 139° Southeast 157 181 5,100  Level Houston Center
Thu 05:02:10 PM 30.7842 -88.2111 137° Southeast 149 171 5,100  Level Houston Center
Thu 05:03:12 PM 30.7536 -88.1806 139° Southeast 147 169 5,100 -48 Level Houston Center
Thu 05:04:14 PM 30.7161 -88.1436 140° Southeast 147 169 5,000 -97 Descending Houston Center
Thu 05:05:16 PM 30.6850 -88.1139 141° Southeast 146 168 4,900 -194 Descending Houston Center
Thu 05:06:18 PM 30.6522 -88.0811 139° Southeast 152 175 4,600 -336 Descending Houston Center
Thu 05:07:21 PM 30.6200 -88.0447 136° Southeast 158 182 4,200 -384 Descending Houston Center
Thu 05:08:23 PM 30.5889 -88.0078 134° Southeast 159 183 3,800 -387 Descending Houston Center
Thu 05:09:25 PM 30.5592 -87.9728 135° Southeast 157 181 3,400 -387 Descending Houston Center
Thu 05:10:27 PM 30.5211 -87.9306 136° Southeast 157 181 3,000 -387 Descending Houston Center
Thu 05:11:29 PM 30.4903 -87.8947 135° Southeast 157 181 2,600 -387 Descending Houston Center
Thu 05:12:31 PM 30.4625 -87.8581 131° Southeast 154 177 2,200 -290 Descending Houston Center
Thu 05:13:33 PM 30.4361 -87.8214 130° Southeast 151 174 2,000 -97 Descending Houston Center
Thu 05:14:35 PM 30.4117 -87.7867 129° Southeast 145 167 2,000  Level Houston Center
Thu 05:15:37 PM 30.3836 -87.7467 129° Southeast 138 159 2,000  Level Houston Center
Thu 05:17:00 PM 30.3270 -87.7249 131° Southeast  Level FlightAware Approximate
Thu 05:24:00 PM 30.2896 -87.6718 131° Southeast  Level Estimated
Thu 05:25:00 PM 30.2896 -87.6718 131° Southeast  Level Estimated
Thu 05:26:00 PM 30.2896 -87.6718 131° Southeast  Level Estimated

Login

Don't have an account? Register now (free) for customized features, flight alerts, and more!